Time;durP1;ratioP1;P1;durP2;ratioP2;P2;SDS_P1;SDS_P2;PMS_P1;PMS_P2;Temp;Humidity;BMP_temperature;BMP_pressure;BME280_temperature;BME280_humidity;BME280_pressure;Samples;Min_cycle;Max_cycle;Signal;HPM_P1;HPM_P2
2021/07/23 00:00:16;;;;;;;9.02;4.38;;;16.00;99.90;;;;;;4208758;28;20040;-62
2021/07/23 00:02:17;;;;;;;8.48;4.75;;;16.00;99.90;;;;;;4207142;28;20028;-63
2021/07/23 00:04:18;;;;;;;6.75;4.72;;;15.90;99.90;;;;;;4208315;28;20248;-62
2021/07/23 00:06:20;;;;;;;8.77;4.63;;;15.90;99.90;;;;;;4207366;28;20129;-61
2021/07/23 00:08:21;;;;;;;6.90;4.20;;;15.90;99.90;;;;;;4208601;28;20044;-62
2021/07/23 00:10:22;;;;;;;6.32;4.30;;;15.90;99.90;;;;;;4207298;28;20040;-62
2021/07/23 00:12:23;;;;;;;5.13;4.63;;;15.90;99.90;;;;;;4208651;28;20081;-61
2021/07/23 00:14:25;;;;;;;6.22;4.45;;;15.90;99.90;;;;;;4206303;28;20420;-62
2021/07/23 00:16:26;;;;;;;8.40;4.88;;;15.80;99.90;;;;;;4207822;28;20886;-62
2021/07/23 00:18:27;;;;;;;10.32;4.72;;;15.80;99.90;;;;;;4207403;28;20024;-62
2021/07/23 00:20:28;;;;;;;6.47;4.32;;;15.80;99.90;;;;;;4207307;28;20048;-62
2021/07/23 00:22:30;;;;;;;7.22;4.10;;;15.80;99.90;;;;;;4190933;28;20040;-63
2021/07/23 00:24:31;;;;;;;8.40;4.55;;;15.80;99.90;;;;;;4203113;28;20040;-62
2021/07/23 00:26:32;;;;;;;7.38;4.45;;;15.80;99.90;;;;;;4207982;28;20032;-63
2021/07/23 00:28:33;;;;;;;6.20;4.60;;;15.80;99.90;;;;;;4206733;28;20032;-61
2021/07/23 00:30:34;;;;;;;7.38;4.80;;;15.80;99.90;;;;;;4207746;28;20031;-62
2021/07/23 00:32:36;;;;;;;8.50;4.50;;;15.80;99.90;;;;;;4206744;28;20077;-62
2021/07/23 00:34:37;;;;;;;7.05;3.70;;;15.70;99.90;;;;;;4208089;28;20105;-63
2021/07/23 00:36:38;;;;;;;5.15;4.30;;;15.70;99.90;;;;;;4206438;28;20032;-62
2021/07/23 00:38:40;;;;;;;7.25;4.85;;;15.70;99.90;;;;;;4207839;28;20028;-61
2021/07/23 00:40:41;;;;;;;4.82;4.28;;;15.70;99.90;;;;;;4204941;28;20077;-62
2021/07/23 00:42:43;;;;;;;5.75;4.20;;;15.70;99.90;;;;;;4208282;28;20037;-62
2021/07/23 00:44:44;;;;;;;5.65;3.72;;;15.70;99.90;;;;;;4206012;28;20082;-62
2021/07/23 00:46:45;;;;;;;13.55;4.60;;;15.60;99.90;;;;;;4207360;28;20024;-63
2021/07/23 00:48:47;;;;;;;5.75;4.38;;;15.60;99.90;;;;;;4207219;28;20510;-62
2021/07/23 00:50:48;;;;;;;6.53;4.25;;;15.60;99.90;;;;;;4206612;28;20032;-62
2021/07/23 00:52:50;;;;;;;4.72;4.10;;;15.50;99.90;;;;;;4207017;28;20044;-62
2021/07/23 00:54:51;;;;;;;10.18;5.05;;;15.50;99.90;;;;;;4205872;28;20093;-62
2021/07/23 00:56:52;;;;;;;6.38;4.72;;;15.50;99.90;;;;;;4206373;28;20040;-62
2021/07/23 00:58:55;;;;;;;8.50;4.43;;;15.50;99.90;;;;;;4206598;28;20040;-62
2021/07/23 01:00:58;;;;;;;6.32;4.63;;;15.50;99.90;;;;;;4207594;28;20094;-62
2021/07/23 01:03:01;;;;;;;7.80;4.72;;;15.40;99.90;;;;;;4206333;28;20842;-62
2021/07/23 01:05:03;;;;;;;5.38;4.40;;;15.40;99.90;;;;;;4207844;28;20040;-62
2021/07/23 01:07:05;;;;;;;7.55;4.75;;;15.40;99.90;;;;;;4206079;28;20044;-62
2021/07/23 01:09:06;;;;;;;5.88;4.28;;;15.40;99.90;;;;;;4207320;28;20032;-62
2021/07/23 01:11:08;;;;;;;7.85;4.78;;;15.30;99.90;;;;;;4206290;28;20040;-61
2021/07/23 01:13:10;;;;;;;7.72;4.95;;;15.40;99.90;;;;;;4207908;28;20108;-62
2021/07/23 01:15:12;;;;;;;8.05;4.25;;;15.30;99.90;;;;;;4206451;28;20028;-61
2021/07/23 01:17:13;;;;;;;7.82;4.30;;;15.40;99.90;;;;;;4207591;28;20073;-61
2021/07/23 01:19:15;;;;;;;10.10;4.78;;;15.30;99.90;;;;;;4205919;28;20032;-62
2021/07/23 01:21:17;;;;;;;6.35;4.88;;;15.30;99.90;;;;;;4207287;28;20028;-61
2021/07/23 01:23:29;;;;;;;7.57;4.60;;;15.30;99.90;;;;;;4206783;28;20423;-62
2021/07/23 01:25:30;;;;;;;5.85;4.22;;;15.30;99.90;;;;;;4206347;28;20057;-61
2021/07/23 01:27:35;;;;;;;9.07;4.13;;;15.30;99.90;;;;;;4206931;28;20054;-61
2021/07/23 01:29:36;;;;;;;6.60;4.47;;;15.30;99.90;;;;;;4206563;28;20093;-62
2021/07/23 01:31:37;;;;;;;6.18;4.05;;;15.20;99.90;;;;;;4206492;28;20389;-62
2021/07/23 01:33:39;;;;;;;10.27;5.13;;;15.20;99.90;;;;;;4206031;28;20132;-62
2021/07/23 01:35:40;;;;;;;7.20;4.45;;;15.30;99.90;;;;;;4207470;28;20386;-62
2021/07/23 01:37:45;;;;;;;11.05;5.22;;;15.20;99.90;;;;;;4206278;28;20063;-62
2021/07/23 01:39:46;;;;;;;9.20;5.03;;;15.20;99.90;;;;;;4207263;28;20032;-61
2021/07/23 01:41:48;;;;;;;7.82;4.18;;;15.20;99.90;;;;;;4206108;28;20052;-61
2021/07/23 01:43:49;;;;;;;9.05;4.15;;;15.20;99.90;;;;;;4207342;28;20457;-62
2021/07/23 01:45:53;;;;;;;9.32;4.88;;;15.20;99.90;;;;;;4205703;28;20073;-62
2021/07/23 01:47:54;;;;;;;6.68;4.35;;;15.20;99.90;;;;;;4207143;28;20032;-62
2021/07/23 01:49:55;;;;;;;10.75;4.57;;;15.20;99.90;;;;;;4206120;28;20024;-61
2021/07/23 01:51:56;;;;;;;7.20;4.27;;;15.20;99.90;;;;;;4207390;28;20028;-61
2021/07/23 01:53:57;;;;;;;8.23;4.22;;;15.20;99.90;;;;;;4205879;28;20035;-62
2021/07/23 01:55:58;;;;;;;4.85;4.35;;;15.20;99.90;;;;;;4206471;28;20074;-61
2021/07/23 01:57:59;;;;;;;5.93;4.50;;;15.20;99.90;;;;;;4206195;28;20157;-62
2021/07/23 02:00:00;;;;;;;6.60;4.60;;;15.20;99.90;;;;;;4206800;28;20097;-61
2021/07/23 02:02:02;;;;;;;7.07;4.45;;;15.20;99.90;;;;;;4205927;28;20028;-61
2021/07/23 02:04:03;;;;;;;10.43;4.60;;;15.20;99.90;;;;;;4206188;28;20028;-62
2021/07/23 02:06:04;;;;;;;8.43;4.25;;;15.20;99.90;;;;;;4207412;28;20093;-62
2021/07/23 02:08:05;;;;;;;5.10;4.05;;;15.20;99.90;;;;;;4205252;28;20028;-62
2021/07/23 02:10:07;;;;;;;7.63;4.43;;;15.20;99.90;;;;;;4206819;28;20093;-62
2021/07/23 02:12:09;;;;;;;7.30;4.15;;;15.20;99.90;;;;;;4205634;28;20043;-62
2021/07/23 02:14:12;;;;;;;7.95;4.35;;;15.20;99.90;;;;;;4206637;28;20089;-63
2021/07/23 02:16:13;;;;;;;7.80;4.57;;;15.20;99.90;;;;;;4205397;28;20441;-62
2021/07/23 02:18:14;;;;;;;9.98;4.40;;;15.10;99.90;;;;;;4207017;28;20036;-60
2021/07/23 02:20:15;;;;;;;10.07;4.45;;;15.20;99.90;;;;;;4205244;28;20795;-62
2021/07/23 02:22:16;;;;;;;7.13;4.03;;;15.20;99.90;;;;;;4206488;28;20048;-62
2021/07/23 02:24:17;;;;;;;8.20;4.27;;;15.20;99.90;;;;;;4205860;28;20130;-62
2021/07/23 02:26:20;;;;;;;9.98;5.07;;;15.20;99.90;;;;;;4206476;28;20533;-63
2021/07/23 02:28:21;;;;;;;5.85;4.15;;;15.20;99.90;;;;;;4205541;28;20036;-62
2021/07/23 02:30:22;;;;;;;25.52;5.60;;;15.20;99.90;;;;;;4206242;28;20086;-62
2021/07/23 02:32:23;;;;;;;6.50;4.68;;;15.30;99.90;;;;;;4205775;28;20490;-61
2021/07/23 02:34:24;;;;;;;7.85;4.82;;;15.30;99.90;;;;;;4205814;28;20101;-60
2021/07/23 02:36:25;;;;;;;6.15;4.20;;;15.20;99.90;;;;;;4206083;28;20028;-63
2021/07/23 02:38:26;;;;;;;6.30;4.00;;;15.20;99.90;;;;;;4206857;28;20426;-61
2021/07/23 02:40:27;;;;;;;6.32;4.35;;;15.20;99.90;;;;;;4209738;28;20036;-62
2021/07/23 02:42:28;;;;;;;6.57;4.78;;;15.20;99.90;;;;;;4209035;28;20040;-61
2021/07/23 02:44:29;;;;;;;8.73;4.53;;;15.20;99.90;;;;;;4209858;28;20089;-62
2021/07/23 02:46:31;;;;;;;6.40;4.47;;;15.10;99.90;;;;;;4208705;28;20044;-61
2021/07/23 02:48:32;;;;;;;9.73;4.10;;;15.10;99.90;;;;;;4208868;28;20640;-62
2021/07/23 02:50:33;;;;;;;9.55;4.45;;;15.10;99.90;;;;;;4207966;28;20766;-62
2021/07/23 02:52:36;;;;;;;6.18;4.53;;;15.10;99.90;;;;;;4209952;28;20039;-62
2021/07/23 02:54:37;;;;;;;6.90;4.28;;;15.20;99.90;;;;;;4208457;28;20028;-62
2021/07/23 02:56:38;;;;;;;11.82;4.75;;;15.20;99.90;;;;;;4209377;28;20489;-63
2021/07/23 02:58:40;;;;;;;7.43;4.47;;;15.20;99.90;;;;;;4207082;28;20012;-62
2021/07/23 03:00:41;;;;;;;6.75;4.28;;;15.20;99.90;;;;;;4208326;28;20073;-62
2021/07/23 03:02:42;;;;;;;6.32;4.22;;;15.20;99.90;;;;;;4208722;28;20537;-63
2021/07/23 03:04:43;;;;;;;7.40;4.33;;;15.10;99.90;;;;;;4208990;28;20032;-63
2021/07/23 03:06:44;;;;;;;10.57;5.03;;;15.10;99.90;;;;;;4209131;28;20084;-62
2021/07/23 03:08:46;;;;;;;9.05;5.13;;;15.10;99.90;;;;;;4207739;28;20036;-62
2021/07/23 03:10:47;;;;;;;9.77;4.73;;;15.10;99.90;;;;;;4209197;28;20081;-62
2021/07/23 03:12:48;;;;;;;8.07;4.80;;;15.10;99.90;;;;;;4208604;28;20081;-62
2021/07/23 03:14:49;;;;;;;15.82;4.93;;;15.10;99.90;;;;;;4208989;28;20068;-63
2021/07/23 03:16:50;;;;;;;8.23;5.07;;;15.10;99.90;;;;;;4207610;28;20128;-62
2021/07/23 03:18:51;;;;;;;8.05;4.97;;;15.20;99.90;;;;;;4208553;28;20036;-63
2021/07/23 03:20:52;;;;;;;8.93;4.03;;;15.30;99.90;;;;;;4207755;28;20051;-63
2021/07/23 03:22:53;;;;;;;8.32;4.68;;;15.30;99.90;;;;;;4209133;28;20466;-62
2021/07/23 03:24:55;;;;;;;10.00;4.60;;;15.50;99.90;;;;;;4207438;28;20077;-62
2021/07/23 03:26:56;;;;;;;10.55;4.90;;;15.60;99.90;;;;;;4208803;28;20028;-62
2021/07/23 03:28:58;;;;;;;8.45;4.85;;;15.70;99.90;;;;;;4207809;28;20028;-62
2021/07/23 03:31:00;;;;;;;7.60;4.70;;;15.80;99.90;;;;;;4207945;28;20414;-62
2021/07/23 03:33:01;;;;;;;6.32;4.82;;;15.90;99.90;;;;;;4208208;28;20036;-63
2021/07/23 03:35:02;;;;;;;5.57;4.45;;;16.10;99.90;;;;;;4208050;28;20046;-62
2021/07/23 03:37:04;;;;;;;11.77;5.28;;;16.30;99.90;;;;;;4206714;28;20035;-62
2021/07/23 03:39:05;;;;;;;5.18;4.07;;;16.40;99.90;;;;;;4207738;28;20101;-64
2021/07/23 03:41:06;;;;;;;10.40;4.88;;;16.50;99.90;;;;;;4208830;28;20048;-62
2021/07/23 03:43:07;;;;;;;6.88;4.40;;;16.50;99.90;;;;;;4207431;28;20446;-63
2021/07/23 03:45:08;;;;;;;10.30;5.15;;;16.70;99.90;;;;;;4209178;28;20046;-63
2021/07/23 03:47:10;;;;;;;9.98;5.00;;;17.00;99.90;;;;;;4207847;28;20036;-63
2021/07/23 03:49:11;;;;;;;7.63;4.68;;;17.30;99.90;;;;;;4208982;28;20036;-62
2021/07/23 03:51:12;;;;;;;6.32;4.60;;;17.60;99.90;;;;;;4207133;28;20426;-62
2021/07/23 03:53:14;;;;;;;11.90;5.07;;;18.00;99.90;;;;;;4208254;28;20857;-63
2021/07/23 03:55:16;;;;;;;7.93;4.20;;;18.30;99.90;;;;;;4206746;28;20540;-63
2021/07/23 03:57:17;;;;;;;6.78;4.05;;;18.60;99.90;;;;;;4208385;28;20054;-63
2021/07/23 03:59:18;;;;;;;8.65;4.38;;;18.80;99.90;;;;;;4207049;28;20478;-62
2021/07/23 04:01:19;;;;;;;6.38;4.28;;;18.90;99.90;;;;;;4207625;28;20165;-63
2021/07/23 04:03:20;;;;;;;6.95;3.67;;;19.20;99.90;;;;;;4207446;28;20035;-62
2021/07/23 04:05:21;;;;;;;7.75;4.15;;;19.30;99.90;;;;;;4207572;28;20081;-62
2021/07/23 04:07:22;;;;;;;5.72;4.15;;;19.60;99.90;;;;;;4207934;28;20020;-61
2021/07/23 04:09:23;;;;;;;8.93;3.90;;;19.90;99.90;;;;;;4206889;28;20039;-62
2021/07/23 04:11:37;;;;;;;5.75;3.63;;;20.30;99.90;;;;;;4208044;28;20020;-63
2021/07/23 04:13:38;;;;;;;7.10;3.90;;;20.60;99.90;;;;;;4207198;28;20035;-63
2021/07/23 04:15:39;;;;;;;7.53;3.95;;;20.80;99.90;;;;;;4206995;28;20474;-62
2021/07/23 04:17:40;;;;;;;4.53;3.55;;;20.90;99.90;;;;;;4206831;28;20031;-63
2021/07/23 04:19:41;;;;;;;7.80;3.80;;;21.10;99.90;;;;;;4207277;28;20024;-62
2021/07/23 04:21:43;;;;;;;7.68;3.50;;;21.50;99.90;;;;;;4206561;28;20039;-63
2021/07/23 04:23:44;;;;;;;10.77;3.80;;;22.00;99.90;;;;;;4207971;28;20028;-63
2021/07/23 04:25:45;;;;;;;5.70;3.50;;;22.40;99.90;;;;;;4206600;28;20078;-61
2021/07/23 04:27:46;;;;;;;6.72;4.03;;;22.60;99.80;;;;;;4207684;28;20468;-63
2021/07/23 04:29:47;;;;;;;8.18;3.90;;;22.80;99.40;;;;;;4206063;28;20097;-62
2021/07/23 04:31:48;;;;;;;10.52;3.58;;;23.10;98.90;;;;;;4207995;28;20043;-64
2021/07/23 04:33:50;;;;;;;5.13;3.45;;;23.40;98.30;;;;;;4206389;28;20052;-61
2021/07/23 04:35:51;;;;;;;9.05;3.97;;;23.40;97.70;;;;;;4207244;28;20048;-62
2021/07/23 04:37:53;;;;;;;4.22;3.65;;;23.30;97.40;;;;;;4206443;28;20767;-61
2021/07/23 04:39:54;;;;;;;10.27;3.47;;;23.30;97.20;;;;;;4207149;28;20036;-60
2021/07/23 04:41:55;;;;;;;7.13;3.90;;;23.30;97.00;;;;;;4206121;28;20573;-65
2021/07/23 04:43:56;;;;;;;4.15;3.25;;;23.60;96.60;;;;;;4206497;28;20110;-61
2021/07/23 04:45:58;;;;;;;8.05;3.60;;;;;;;;;;4206810;28;20556;-61
2021/07/23 04:47:59;;;;;;;7.10;3.10;;;;;;;;;;4204561;28;20057;-61
2021/07/23 04:50:01;;;;;;;7.55;3.60;;;;;;;;;;4207196;28;20476;-62
2021/07/23 04:52:02;;;;;;;9.55;3.65;;;;;;;;;;4205900;28;20529;-62
2021/07/23 04:54:05;;;;;;;6.38;3.55;;;;;;;;;;4206695;28;20157;-62
2021/07/23 04:56:07;;;;;;;6.45;3.20;;;;;;;;;;4205986;28;20571;-62
2021/07/23 04:58:09;;;;;;;5.88;3.33;;;;;;;;;;4206483;28;20082;-62
2021/07/23 05:00:12;;;;;;;5.95;2.90;;;24.20;96.30;;;;;;4204872;28;20101;-61
2021/07/23 05:02:13;;;;;;;5.43;2.97;;;24.80;92.30;;;;;;4206778;28;20097;-64
2021/07/23 05:04:14;;;;;;;8.38;3.25;;;;;;;;;;4205478;28;20028;-64
2021/07/23 05:06:15;;;;;;;9.07;3.22;;;;;;;;;;4206337;28;20020;-63
2021/07/23 05:08:17;;;;;;;4.50;3.08;;;;;;;;;;4205496;28;20032;-62
2021/07/23 05:10:18;;;;;;;9.20;3.17;;;;;;;;;;4191779;28;20488;-62
2021/07/23 05:12:20;;;;;;;4.32;3.08;;;;;;;;;;4189851;28;20550;-63
2021/07/23 05:14:22;;;;;;;12.10;4.22;;;;;;;;;;4190257;28;20056;-61
2021/07/23 05:16:23;;;;;;;5.22;3.67;;;;;;;;;;4189940;28;20109;-61
2021/07/23 05:18:28;;;;;;;7.93;3.25;;;;;;;;;;4189807;28;20062;-60
2021/07/23 05:20:29;;;;;;;6.32;3.10;;;;;;;;;;4190566;28;20044;-61
2021/07/23 05:22:31;;;;;;;8.23;3.35;;;;;;;;;;4189300;28;20113;-61
2021/07/23 05:24:33;;;;;;;5.63;3.28;;;;;;;;;;4190377;28;20096;-60
2021/07/23 05:26:35;;;;;;;5.75;2.70;;;;;;;;;;4188973;28;20089;-62
2021/07/23 05:28:36;;;;;;;4.35;3.05;;;24.90;92.50;;;;;;4205915;28;20516;-62
2021/07/23 05:30:37;;;;;;;3.47;2.65;;;26.80;85.40;;;;;;4189054;28;20090;-61
2021/07/23 05:32:39;;;;;;;5.90;3.30;;;;;;;;;;4190852;28;20443;-61
2021/07/23 05:34:40;;;;;;;4.32;3.08;;;26.80;85.40;;;;;;4189667;28;20052;-61
2021/07/23 05:36:41;;;;;;;7.93;3.92;;;26.80;84.50;;;;;;4190164;28;20048;-60
2021/07/23 05:38:43;;;;;;;5.32;3.05;;;;;;;;;;4189341;28;20466;-61
2021/07/23 05:40:44;;;;;;;12.23;4.05;;;;;;;;;;4190313;28;20037;-61
2021/07/23 05:42:46;;;;;;;7.20;4.05;;;;;;;;;;4189828;28;20049;-62
2021/07/23 05:44:47;;;;;;;7.95;3.20;;;;;;;;;;4189641;28;20025;-63
2021/07/23 05:46:48;;;;;;;7.32;3.45;;;;;;;;;;4189877;28;20085;-61
2021/07/23 05:48:50;;;;;;;4.25;2.95;;;;;;;;;;4189130;28;20024;-61
2021/07/23 05:50:51;;;;;;;3.97;3.00;;;;;;;;;;4189886;28;20029;-62
2021/07/23 05:52:52;;;;;;;6.60;3.20;;;;;;;;;;4188622;28;20036;-62
2021/07/23 05:54:54;;;;;;;5.35;3.17;;;;;;;;;;4190640;28;20081;-61
2021/07/23 05:56:55;;;;;;;5.32;3.10;;;;;;;;;;4188881;28;20025;-63
2021/07/23 05:58:57;;;;;;;5.82;3.22;;;;;;;;;;4190404;28;20036;-63
2021/07/23 06:00:58;;;;;;;4.13;2.92;;;;;;;;;;4189211;28;20032;-62
2021/07/23 06:03:05;;;;;;;4.90;3.10;;;;;;;;;;4190402;28;20468;-62
2021/07/23 06:05:06;;;;;;;5.70;3.03;;;26.90;84.20;;;;;;4189296;28;20118;-60
2021/07/23 06:07:08;;;;;;;9.15;3.42;;;30.50;74.30;;;;;;4189354;28;20040;-60
2021/07/23 06:09:09;;;;;;;3.97;2.88;;;30.80;73.90;;;;;;4189189;28;20079;-60
2021/07/23 06:11:10;;;;;;;3.47;2.92;;;30.70;72.80;;;;;;4190180;28;20332;-61
2021/07/23 06:13:11;;;;;;;5.10;3.15;;;30.40;73.00;;;;;;4190567;28;20105;-61
2021/07/23 06:15:12;;;;;;;6.25;3.50;;;29.90;73.10;;;;;;4208678;28;20143;-62
2021/07/23 06:17:14;;;;;;;5.75;3.60;;;;;;;;;;4192331;28;20040;-61
2021/07/23 06:19:15;;;;;;;5.80;3.97;;;;;;;;;;4192471;28;20094;-60
2021/07/23 06:21:16;;;;;;;9.90;5.57;;;29.70;73.10;;;;;;4192853;28;20093;-60
2021/07/23 06:23:18;;;;;;;11.35;7.03;;;26.80;78.10;;;;;;4191879;28;20481;-60
2021/07/23 06:25:19;;;;;;;6.25;4.10;;;26.60;78.50;;;;;;4193022;28;20094;-60
2021/07/23 06:27:20;;;;;;;8.82;3.78;;;;;;;;;;4191957;28;20025;-60
2021/07/23 06:29:21;;;;;;;10.77;4.30;;;26.90;78.40;;;;;;4193473;28;20544;-60
2021/07/23 06:31:22;;;;;;;3.83;3.03;;;27.80;76.90;;;;;;4191899;28;20021;-60
2021/07/23 06:33:23;;;;;;;7.68;4.95;;;26.90;78.20;;;;;;4193043;28;20496;-61
2021/07/23 06:35:24;;;;;;;4.80;3.45;;;25.90;79.70;;;;;;4191621;28;20626;-61
2021/07/23 06:37:26;;;;;;;5.45;3.20;;;25.40;81.40;;;;;;4192475;28;20036;-61
2021/07/23 06:39:29;;;;;;;10.15;4.15;;;25.40;82.10;;;;;;4192058;28;20028;-60
2021/07/23 06:41:30;;;;;;;5.53;3.78;;;26.10;81.60;;;;;;4193133;28;20040;-61
2021/07/23 06:43:32;;;;;;;6.30;3.50;;;26.50;80.80;;;;;;4192336;28;20048;-60
2021/07/23 06:45:33;;;;;;;8.25;4.45;;;27.00;80.00;;;;;;4191646;28;20086;-60
2021/07/23 06:47:36;;;;;;;4.43;3.35;;;26.70;79.60;;;;;;4191898;28;20036;-60
2021/07/23 06:49:38;;;;;;;8.95;4.95;;;25.70;81.00;;;;;;4192496;28;20443;-60
2021/07/23 06:51:39;;;;;;;5.25;3.30;;;25.00;82.70;;;;;;4191697;28;20085;-59
2021/07/23 06:53:40;;;;;;;5.90;3.97;;;25.10;83.50;;;;;;4191721;28;20522;-60
2021/07/23 06:55:41;;;;;;;6.60;4.18;;;25.20;83.50;;;;;;4192737;28;20099;-56
2021/07/23 06:57:42;;;;;;;6.05;3.65;;;25.10;83.90;;;;;;4191721;28;20454;-59
2021/07/23 06:59:43;;;;;;;8.15;3.90;;;25.50;83.60;;;;;;4191374;28;20033;-59
2021/07/23 07:01:44;;;;;;;7.57;4.07;;;25.50;82.60;;;;;;4190925;28;20028;-58
2021/07/23 07:03:45;;;;;;;6.53;3.65;;;25.30;82.90;;;;;;4192077;28;20024;-64
2021/07/23 07:05:50;;;;;;;10.25;3.90;;;25.40;83.30;;;;;;4190702;28;20025;-63
2021/07/23 07:07:51;;;;;;;7.80;4.22;;;25.90;83.20;;;;;;4192527;28;20084;-58
2021/07/23 07:09:52;;;;;;;4.75;3.33;;;26.20;82.10;;;;;;4190888;28;20106;-60
2021/07/23 07:12:00;;;;;;;8.57;3.80;;;25.80;82.40;;;;;;4192148;28;20040;-62
2021/07/23 07:14:01;;;;;;;9.02;4.57;;;25.40;83.50;;;;;;4191600;28;20421;-60
2021/07/23 07:16:03;;;;;;;10.77;5.15;;;24.60;84.90;;;;;;4191984;28;20419;-62
2021/07/23 07:18:04;;;;;;;7.85;4.00;;;24.30;86.30;;;;;;4190770;28;20028;-61
2021/07/23 07:20:05;;;;;;;9.98;4.68;;;24.40;86.40;;;;;;4191861;28;20049;-63
2021/07/23 07:22:06;;;;;;;11.38;4.25;;;24.30;86.90;;;;;;4203516;28;20047;-61
2021/07/23 07:24:08;;;;;;;7.43;3.88;;;24.30;87.30;;;;;;4207626;28;20387;-61
2021/07/23 07:26:10;;;;;;;8.15;4.40;;;24.20;87.50;;;;;;4207849;28;20032;-62
2021/07/23 07:28:11;;;;;;;8.40;4.03;;;24.10;87.90;;;;;;4206510;28;20492;-62
2021/07/23 07:30:12;;;;;;;5.75;3.78;;;24.10;88.40;;;;;;4208580;28;20054;-60
2021/07/23 07:32:13;;;;;;;8.40;4.18;;;24.30;88.10;;;;;;4207871;28;20028;-62
2021/07/23 07:34:14;;;;;;;7.13;3.45;;;24.60;87.60;;;;;;4209329;28;20028;-61
2021/07/23 07:36:18;;;;;;;7.90;4.00;;;24.80;87.20;;;;;;4207286;28;20028;-61
2021/07/23 07:38:20;;;;;;;5.80;3.58;;;24.50;87.70;;;;;;4208557;28;20044;-62
2021/07/23 07:40:21;;;;;;;8.07;4.15;;;24.50;87.90;;;;;;4207579;28;20023;-62
2021/07/23 07:42:22;;;;;;;6.75;3.70;;;24.40;87.90;;;;;;4208368;28;20102;-62
2021/07/23 07:44:23;;;;;;;5.88;3.95;;;24.50;88.30;;;;;;4207810;28;20161;-61
2021/07/23 07:46:25;;;;;;;7.72;3.80;;;24.80;88.00;;;;;;4197674;28;20434;-63
2021/07/23 07:48:26;;;;;;;6.35;3.72;;;25.00;87.40;;;;;;4191007;28;20102;-60
2021/07/23 07:50:27;;;;;;;6.60;4.15;;;24.90;87.20;;;;;;4191284;28;20028;-62
2021/07/23 07:52:28;;;;;;;6.20;3.28;;;24.40;88.50;;;;;;4190787;28;20065;-59
2021/07/23 07:54:29;;;;;;;11.27;3.97;;;24.10;89.50;;;;;;4191797;28;20048;-61
2021/07/23 07:56:30;;;;;;;10.98;3.90;;;24.10;89.70;;;;;;4191766;28;20048;-62
2021/07/23 07:58:32;;;;;;;5.25;3.63;;;24.30;89.60;;;;;;4191218;28;20559;-60
2021/07/23 08:00:33;;;;;;;8.57;3.50;;;24.70;89.30;;;;;;4191553;28;20037;-60
2021/07/23 08:02:34;;;;;;;10.23;4.22;;;25.40;88.60;;;;;;4190850;28;20078;-60
2021/07/23 08:04:36;;;;;;;8.88;3.53;;;25.40;87.90;;;;;;4192139;28;20507;-62
2021/07/23 08:06:40;;;;;;;5.00;3.33;;;25.50;88.00;;;;;;4190211;28;20082;-63
2021/07/23 08:08:41;;;;;;;5.03;2.97;;;25.70;88.10;;;;;;4192055;28;20342;-63
2021/07/23 08:10:45;;;;;;;5.82;3.50;;;25.90;87.90;;;;;;4190672;28;20024;-61
2021/07/23 08:12:46;;;;;;;6.10;3.42;;;25.60;87.80;;;;;;4191996;28;20086;-61
2021/07/23 08:14:48;;;;;;;5.75;4.00;;;25.10;88.70;;;;;;4185196;28;20036;-59
2021/07/23 08:16:49;;;;;;;10.13;4.15;;;24.80;89.90;;;;;;4191081;28;20469;-60
2021/07/23 08:18:50;;;;;;;9.50;3.65;;;24.60;90.00;;;;;;4190189;28;20029;-60
2021/07/23 08:20:51;;;;;;;6.20;3.67;;;24.60;90.00;;;;;;4191121;28;20044;-69
2021/07/23 08:22:53;;;;;;;6.70;3.80;;;24.50;90.10;;;;;;4189895;28;20073;-59
2021/07/23 08:24:55;;;;;;;4.10;3.22;;;24.80;90.00;;;;;;4190917;28;20045;-59
2021/07/23 08:26:56;;;;;;;8.48;3.70;;;25.00;90.00;;;;;;4190051;28;20457;-59
2021/07/23 08:28:57;;;;;;;6.63;3.53;;;25.00;90.00;;;;;;4190560;28;20393;-61
2021/07/23 08:30:58;;;;;;;6.43;3.33;;;24.80;90.10;;;;;;4190372;28;20104;-61
2021/07/23 08:33:00;;;;;;;7.97;3.30;;;24.80;90.10;;;;;;4190156;28;20070;-60
2021/07/23 08:35:01;;;;;;;4.97;3.50;;;24.80;90.10;;;;;;4189322;28;20110;-61
2021/07/23 08:37:03;;;;;;;4.63;3.20;;;24.80;90.20;;;;;;4189144;28;20354;-59
2021/07/23 08:39:04;;;;;;;5.45;3.30;;;24.80;90.10;;;;;;4190932;28;20112;-60
2021/07/23 08:41:05;;;;;;;6.45;3.42;;;24.80;90.20;;;;;;4189461;28;20048;-60
2021/07/23 08:43:06;;;;;;;6.00;3.30;;;24.80;90.10;;;;;;4190838;28;20032;-60
2021/07/23 08:45:07;;;;;;;4.45;3.17;;;24.90;90.00;;;;;;4190044;28;20097;-59
2021/07/23 08:47:08;;;;;;;4.35;3.20;;;25.00;89.90;;;;;;4207276;28;20398;-59
2021/07/23 08:49:14;;;;;;;5.68;3.28;;;25.20;89.40;;;;;;4206309;28;20032;-60
2021/07/23 08:51:21;;;;;;;5.53;3.30;;;25.30;89.00;;;;;;4206664;28;20098;-60
2021/07/23 08:53:22;;;;;;;6.78;2.90;;;25.40;89.00;;;;;;4206410;28;20081;-59
2021/07/23 08:55:24;;;;;;;5.53;3.15;;;25.50;89.10;;;;;;4206908;28;20132;-60
2021/07/23 08:57:25;;;;;;;6.30;3.35;;;25.50;88.60;;;;;;4205448;28;20867;-60
2021/07/23 08:59:26;;;;;;;7.60;3.20;;;25.70;88.60;;;;;;4206824;28;20033;-60
2021/07/23 09:01:27;;;;;;;4.25;3.40;;;25.60;88.30;;;;;;4206269;28;20040;-60
2021/07/23 09:03:28;;;;;;;9.63;3.15;;;25.40;88.50;;;;;;4206657;28;20438;-60
2021/07/23 09:05:38;;;;;;;8.15;3.42;;;25.10;89.10;;;;;;4205079;28;20032;-60
2021/07/23 09:07:39;;;;;;;3.67;2.80;;;24.80;89.60;;;;;;4206643;28;20094;-59
2021/07/23 09:09:41;;;;;;;4.65;3.60;;;24.80;90.00;;;;;;4207223;28;20085;-60
2021/07/23 09:11:58;;;;;;;8.63;3.22;;;25.00;90.00;;;;;;4206007;28;20489;-61
2021/07/23 09:14:15;;;;;;;4.95;2.97;;;25.40;89.30;;;;;;4205350;28;20085;-60
2021/07/23 09:16:25;;;;;;;6.25;3.35;;;25.50;88.50;;;;;;4205941;28;20051;-60
2021/07/23 09:18:31;;;;;;;6.05;3.28;;;25.30;88.90;;;;;;4206913;28;20533;-60
2021/07/23 09:20:33;;;;;;;7.78;3.67;;;25.10;89.40;;;;;;4204880;28;20036;-60
2021/07/23 09:22:51;;;;;;;6.38;3.13;;;24.90;90.00;;;;;;4207063;28;20431;-59
2021/07/23 09:24:53;;;;;;;5.90;3.97;;;24.80;90.20;;;;;;4206287;28;20032;-61
2021/07/23 09:26:54;;;;;;;5.25;3.22;;;24.80;90.20;;;;;;4206828;28;20032;-60
2021/07/23 09:28:56;;;;;;;6.65;3.70;;;24.70;90.10;;;;;;4205885;28;20044;-66
2021/07/23 09:31:03;;;;;;;11.55;3.33;;;24.50;90.20;;;;;;4207084;28;20085;-60
2021/07/23 09:33:04;;;;;;;8.13;3.40;;;24.40;90.40;;;;;;4205999;28;20472;-61
2021/07/23 09:35:11;;;;;;;5.75;3.25;;;24.60;90.30;;;;;;4206562;28;20048;-62
2021/07/23 09:37:12;;;;;;;5.20;3.38;;;24.70;90.10;;;;;;4205674;28;20028;-60
2021/07/23 09:39:18;;;;;;;6.15;3.33;;;24.80;90.10;;;;;;4206821;28;20035;-60
2021/07/23 09:41:22;;;;;;;4.05;3.03;;;24.80;89.70;;;;;;4205954;28;20044;-61
2021/07/23 09:43:30;;;;;;;6.55;3.40;;;24.80;89.70;;;;;;4207288;28;20831;-60
2021/07/23 09:45:33;;;;;;;7.72;3.20;;;24.80;90.00;;;;;;4205737;28;20032;-60
2021/07/23 09:47:34;;;;;;;4.88;3.28;;;24.90;89.70;;;;;;4208715;28;20077;-60
2021/07/23 09:49:35;;;;;;;5.55;3.47;;;24.90;89.20;;;;;;4208903;28;21019;-60
2021/07/23 09:51:37;;;;;;;4.43;3.65;;;24.80;89.20;;;;;;4210597;28;20033;-60
2021/07/23 09:53:39;;;;;;;5.50;3.60;;;24.60;89.40;;;;;;4209401;28;20043;-61
2021/07/23 09:55:43;;;;;;;3.42;3.13;;;24.60;90.00;;;;;;4210301;28;20040;-60
2021/07/23 09:57:47;;;;;;;4.43;3.33;;;24.60;89.50;;;;;;4209558;28;20032;-61
2021/07/23 09:59:58;;;;;;;8.73;3.70;;;24.60;89.20;;;;;;4209361;28;20413;-60
2021/07/23 10:02:05;;;;;;;7.70;3.60;;;24.70;89.30;;;;;;4209781;28;20095;-60
2021/07/23 10:04:31;;;;;;;5.40;3.60;;;25.00;89.20;;;;;;4209317;28;20463;-60
2021/07/23 10:06:41;;;;;;;6.07;3.60;;;25.30;88.40;;;;;;4208955;28;20024;-61
2021/07/23 10:08:55;;;;;;;5.03;3.30;;;25.40;88.00;;;;;;4209518;28;20047;-61
2021/07/23 10:10:57;;;;;;;6.35;3.22;;;25.20;87.10;;;;;;4209156;28;20040;-62
2021/07/23 10:13:01;;;;;;;4.88;3.40;;;25.30;87.90;;;;;;4209248;28;20081;-62
2021/07/23 10:15:03;;;;;;;7.43;3.05;;;25.20;88.10;;;;;;4209013;28;20082;-62
2021/07/23 10:17:04;;;;;;;7.30;3.70;;;25.10;87.00;;;;;;4209098;28;20036;-61
2021/07/23 10:19:07;;;;;;;13.15;7.93;;;25.10;87.10;;;;;;4206984;28;20478;-62
2021/07/23 10:21:09;;;;;;;7.35;3.78;;;25.20;87.80;;;;;;4208567;28;20045;-62
2021/07/23 10:23:10;;;;;;;5.10;2.92;;;25.40;87.90;;;;;;4209632;28;20105;-62
2021/07/23 10:25:11;;;;;;;7.60;4.03;;;25.60;87.70;;;;;;4208922;28;20029;-61
2021/07/23 10:27:13;;;;;;;3.60;2.83;;;25.70;87.30;;;;;;4209392;28;20040;-64
2021/07/23 10:29:14;;;;;;;5.40;3.05;;;25.50;87.20;;;;;;4208667;28;20024;-62
2021/07/23 10:31:18;;;;;;;7.95;4.10;;;25.20;87.00;;;;;;4209600;28;20048;-63
2021/07/23 10:33:49;;;;;;;6.63;3.38;;;25.00;87.10;;;;;;4208045;28;20458;-62
2021/07/23 10:35:50;;;;;;;5.20;3.60;;;24.90;87.30;;;;;;4210431;28;20043;-63
2021/07/23 10:37:53;;;;;;;5.28;2.97;;;24.90;88.00;;;;;;4209162;28;20089;-62
2021/07/23 10:40:09;;;;;;;8.50;3.20;;;24.70;87.40;;;;;;4210002;28;20044;-62
2021/07/23 10:42:10;;;;;;;4.95;3.40;;;24.60;86.40;;;;;;4208473;28;20040;-61
2021/07/23 10:44:33;;;;;;;4.70;3.05;;;24.60;86.80;;;;;;4209178;28;20032;-62